createdAt,value
2019-06-27T00:01:55.887Z,98009.09
2019-06-27T00:05:04.122Z,98010.72
2019-06-27T00:08:10.244Z,98006.57
2019-06-27T00:11:16.358Z,98003.11
2019-06-27T00:14:22.704Z,98000.80
2019-06-27T00:17:28.969Z,98001.30
2019-06-27T00:20:35.570Z,97994.55
2019-06-27T00:23:42.323Z,97999.70
2019-06-27T00:26:57.179Z,97997.52
2019-06-27T00:29:56.147Z,97991.15
2019-06-27T00:33:02.608Z,97997.36
2019-06-27T00:36:08.741Z,97997.75
2019-06-27T00:39:14.815Z,97994.70
2019-06-27T00:42:21.139Z,97992.75
2019-06-27T00:45:27.725Z,98002.79
2019-06-27T00:48:34.062Z,97995.72
2019-06-27T00:51:40.176Z,97999.16
2019-06-27T00:54:46.230Z,98001.89
2019-06-27T00:57:52.337Z,97997.53
2019-06-27T01:00:58.602Z,97999.83
2019-06-27T01:04:04.970Z,97995.72
2019-06-27T01:07:11.001Z,97999.80
2019-06-27T01:10:18.467Z,98008.89
2019-06-27T01:13:24.516Z,98004.19
2019-06-27T01:16:30.711Z,98011.22
2019-06-27T01:19:36.765Z,98014.97
2019-06-27T01:22:43.454Z,98014.02
2019-06-27T01:25:52.531Z,98018.31
2019-06-27T01:28:59.270Z,98023.59
2019-06-27T01:32:06.574Z,98024.27
2019-06-27T01:35:14.271Z,98018.56
2019-06-27T01:38:20.701Z,98019.30
2019-06-27T01:41:27.539Z,98028.14
2019-06-27T01:44:42.351Z,98032.42
2019-06-27T01:47:48.912Z,98024.91
2019-06-27T01:50:55.048Z,98030.73
2019-06-27T01:54:01.607Z,98036.64
2019-06-27T01:57:07.895Z,98039.44
2019-06-27T02:00:14.883Z,98042.64
2019-06-27T02:03:21.492Z,98038.72
2019-06-27T02:06:27.883Z,98039.19
2019-06-27T02:09:40.215Z,98037.59
2019-06-27T02:12:46.681Z,98031.05
2019-06-27T02:15:53.055Z,98035.08
2019-06-27T02:18:59.510Z,98036.22
2019-06-27T02:22:05.539Z,98032.82
2019-06-27T02:25:12.874Z,98037.85
2019-06-27T02:28:19.250Z,98037.89
2019-06-27T02:31:25.587Z,98038.41
2019-06-27T02:34:31.890Z,98037.88
2019-06-27T02:37:40.262Z,98034.18
2019-06-27T02:40:46.341Z,98037.38
2019-06-27T02:43:52.394Z,98028.29
2019-06-27T02:46:58.495Z,98027.61
2019-06-27T02:50:04.789Z,98021.69
2019-06-27T02:53:11.453Z,98028.71
2019-06-27T02:56:17.510Z,98027.65
2019-06-27T02:59:23.897Z,98027.25
2019-06-27T03:02:30.365Z,98037.34
2019-06-27T03:05:36.820Z,98039.48
2019-06-27T03:08:42.946Z,98040.48
2019-06-27T03:11:49.468Z,98042.05
2019-06-27T03:14:55.864Z,98044.68
2019-06-27T03:18:02.262Z,98050.44
2019-06-27T03:21:08.989Z,98046.26
2019-06-27T03:24:15.648Z,98052.73
2019-06-27T03:27:22.280Z,98045.22
2019-06-27T03:30:28.640Z,98041.23
2019-06-27T03:33:34.972Z,98051.50
2019-06-27T03:36:41.270Z,98049.41
2019-06-27T03:39:47.864Z,98048.20
2019-06-27T03:42:54.323Z,98056.02
2019-06-27T03:46:03.692Z,98056.52
2019-06-27T03:49:10.371Z,98050.94
2019-06-27T03:52:16.717Z,98054.20
2019-06-27T03:55:23.100Z,98052.71
2019-06-27T03:58:29.424Z,98050.29
2019-06-27T04:01:36.144Z,98056.13
2019-06-27T04:04:42.804Z,98052.80
2019-06-27T04:07:49.123Z,98050.39
2019-06-27T04:10:55.627Z,98056.53
2019-06-27T04:14:01.990Z,98059.81
2019-06-27T04:17:08.454Z,98060.88
2019-06-27T04:20:15.387Z,98056.64
2019-06-27T04:23:21.708Z,98063.41
2019-06-27T04:26:28.117Z,98059.94
2019-06-27T04:29:35.118Z,98068.41
2019-06-27T04:32:41.680Z,98065.98
2019-06-27T04:35:56.045Z,98081.17
2019-06-27T04:39:02.780Z,98073.72
2019-06-27T04:42:09.430Z,98077.12
2019-06-27T04:45:16.187Z,98079.08
2019-06-27T04:48:22.598Z,98075.02
2019-06-27T04:51:28.927Z,98082.31
2019-06-27T04:54:35.312Z,98080.37
2019-06-27T04:57:41.612Z,98088.27
2019-06-27T05:00:47.984Z,98082.45
2019-06-27T05:03:54.412Z,98084.70
2019-06-27T05:07:00.726Z,98087.02
2019-06-27T05:10:07.736Z,98085.40
2019-06-27T05:13:14.070Z,98095.86
2019-06-27T05:16:20.403Z,98088.01
2019-06-27T05:19:27.203Z,98085.39
2019-06-27T05:22:33.593Z,98086.47
2019-06-27T05:25:39.919Z,98093.91
2019-06-27T05:28:46.735Z,98091.98
2019-06-27T05:31:53.317Z,98095.16
2019-06-27T05:35:00.711Z,98099.70
2019-06-27T05:38:07.102Z,98105.41
2019-06-27T05:41:13.735Z,98103.81
2019-06-27T05:44:20.080Z,98102.94
2019-06-27T05:47:26.736Z,98099.30
2019-06-27T05:50:33.122Z,98105.98
2019-06-27T05:53:39.493Z,98101.30
2019-06-27T05:56:45.995Z,98105.13
2019-06-27T05:59:53.367Z,98103.59
2019-06-27T06:03:00.028Z,98118.98
2019-06-27T06:06:09.672Z,98114.56
2019-06-27T06:09:16.274Z,98126.84
2019-06-27T06:12:22.897Z,98124.36
2019-06-27T06:16:18.409Z,98122.20
2019-06-27T06:19:25.769Z,98134.97
2019-06-27T06:22:33.225Z,98126.81
2019-06-27T06:25:39.725Z,98128.91
2019-06-27T06:28:46.279Z,98119.56
2019-06-27T06:31:52.712Z,98128.40
2019-06-27T06:34:59.397Z,98125.28
2019-06-27T06:38:06.087Z,98131.51
2019-06-27T06:41:12.434Z,98136.47
2019-06-27T06:44:18.843Z,98129.09
2019-06-27T06:47:25.478Z,98140.27
2019-06-27T06:50:31.829Z,98138.86
2019-06-27T06:53:38.272Z,98146.56
2019-06-27T06:56:44.795Z,98152.40
2019-06-27T06:59:51.113Z,98155.56
2019-06-27T07:02:57.546Z,98158.56
2019-06-27T07:06:04.113Z,98159.57
2019-06-27T07:09:10.607Z,98164.23
2019-06-27T07:12:17.272Z,98164.52
2019-06-27T07:15:23.695Z,98164.56
2019-06-27T07:18:30.176Z,98163.33
2019-06-27T07:21:36.701Z,98168.30
2019-06-27T07:24:43.008Z,98165.34
2019-06-27T07:27:49.303Z,98171.73
2019-06-27T07:30:55.652Z,98175.50
2019-06-27T07:34:02.025Z,98180.03
2019-06-27T07:37:08.626Z,98171.11
2019-06-27T07:40:15.561Z,98164.89
2019-06-27T07:43:21.990Z,98167.51
2019-06-27T07:46:28.290Z,98168.52
2019-06-27T07:49:34.689Z,98170.77
2019-06-27T07:52:40.992Z,98162.67
2019-06-27T07:55:47.328Z,98156.44
2019-06-27T07:58:53.696Z,98157.78
2019-06-27T08:02:00.035Z,98156.58
2019-06-27T08:05:06.523Z,98158.52
2019-06-27T08:08:14.007Z,98146.17
2019-06-27T08:11:20.385Z,98153.52
2019-06-27T08:14:27.667Z,98155.82
2019-06-27T08:17:33.978Z,98156.21
2019-06-27T08:20:40.313Z,98151.02
2019-06-27T08:23:46.643Z,98154.45
2019-06-27T08:26:52.953Z,98155.83
2019-06-27T08:29:59.297Z,98157.24
2019-06-27T08:33:05.774Z,98153.97
2019-06-27T08:36:12.149Z,98155.27
2019-06-27T08:39:18.720Z,98155.49
2019-06-27T08:42:25.207Z,98164.52
2019-06-27T08:45:31.596Z,98164.03
2019-06-27T08:48:37.904Z,98165.17
2019-06-27T08:51:44.287Z,98158.63
2019-06-27T08:54:51.563Z,98158.02
2019-06-27T08:57:57.893Z,98153.16
2019-06-27T09:01:04.377Z,98147.31
2019-06-27T09:04:10.934Z,98145.30
2019-06-27T09:07:17.482Z,98147.70
2019-06-27T09:10:24.267Z,98145.75
2019-06-27T09:13:30.589Z,98150.44
2019-06-27T09:16:37.180Z,98147.09
2019-06-27T09:19:43.718Z,98148.11
2019-06-27T09:22:51.037Z,98148.42
2019-06-27T09:25:57.704Z,98139.86
2019-06-27T09:29:04.087Z,98140.94
2019-06-27T09:32:24.079Z,98139.71
2019-06-27T09:35:18.672Z,98138.58
2019-06-27T09:38:24.703Z,98134.80
2019-06-27T09:41:31.170Z,98136.48
2019-06-27T09:44:37.553Z,98137.48
2019-06-27T09:47:44.361Z,98133.56
2019-06-27T09:50:50.397Z,98142.05
2019-06-27T09:53:56.891Z,98134.41
2019-06-27T09:57:04.173Z,98128.40
2019-06-27T10:00:12.577Z,98127.91
2019-06-27T10:03:18.957Z,98133.01
2019-06-27T10:06:26.328Z,98123.52
2019-06-27T10:09:33.553Z,98120.56
2019-06-27T10:12:42.832Z,98118.34
2019-06-27T10:15:47.442Z,98120.44
2019-06-27T10:18:55.034Z,98121.33
2019-06-27T10:22:01.192Z,98118.37
2019-06-27T10:25:07.557Z,98117.87
2019-06-27T10:28:13.602Z,98115.65
2019-06-27T10:31:20.618Z,98112.51
2019-06-27T10:34:26.740Z,98115.03
2019-06-27T10:37:33.017Z,98111.39
2019-06-27T10:40:39.114Z,98111.31
2019-06-27T10:43:45.622Z,98110.78
2019-06-27T10:46:51.828Z,98108.90
2019-06-27T10:49:58.856Z,98100.33
2019-06-27T10:53:05.165Z,98100.71
2019-06-27T10:56:11.225Z,98102.63
2019-06-27T10:59:17.254Z,98100.23
2019-06-27T11:02:23.360Z,98095.88
2019-06-27T11:05:29.769Z,98092.08
2019-06-27T11:08:35.817Z,98088.43
2019-06-27T11:11:42.050Z,98088.31
2019-06-27T11:14:58.582Z,98093.20
2019-06-27T11:17:55.915Z,98081.32
2019-06-27T11:21:02.177Z,98085.22
2019-06-27T11:24:08.216Z,98085.81
2019-06-27T11:27:14.302Z,98077.13
2019-06-27T11:30:20.406Z,98073.59
2019-06-27T11:33:32.785Z,98080.34
2019-06-27T11:36:34.498Z,98071.03
2019-06-27T11:39:40.705Z,98075.41
2019-06-27T11:42:46.781Z,98079.73
2019-06-27T11:45:53.504Z,98076.84
2019-06-27T11:48:59.617Z,98071.91
2019-06-27T11:52:05.750Z,98069.02
2019-06-27T11:55:12.162Z,98069.05
2019-06-27T11:58:18.308Z,98078.04
2019-06-27T12:01:24.411Z,98078.92
2019-06-27T12:04:30.435Z,98065.36
2019-06-27T12:07:36.468Z,98070.72
2019-06-27T12:10:43.871Z,98063.98
2019-06-27T12:13:49.909Z,98060.08
2019-06-27T12:16:56.219Z,98064.17
2019-06-27T12:20:02.331Z,98064.64
2019-06-27T12:23:08.715Z,98062.94
2019-06-27T12:26:14.987Z,98065.20
2019-06-27T12:29:21.034Z,98064.97
2019-06-27T12:32:27.241Z,98065.28
2019-06-27T12:35:33.302Z,98068.96
2019-06-27T12:38:39.332Z,98070.47
2019-06-27T12:41:46.927Z,98068.16
2019-06-27T12:44:53.011Z,98066.64
2019-06-27T12:48:06.425Z,98071.14
2019-06-27T12:51:07.613Z,98065.30
2019-06-27T12:54:13.779Z,98056.61
2019-06-27T12:57:19.836Z,98066.38
2019-06-27T13:00:27.270Z,98061.47
2019-06-27T13:03:33.445Z,98054.56
2019-06-27T13:06:39.601Z,98043.38
2019-06-27T13:09:46.800Z,98038.12
2019-06-27T13:12:52.860Z,98031.84
2019-06-27T13:15:58.987Z,98038.89
2019-06-27T13:19:05.044Z,98023.41
2019-06-27T13:22:11.200Z,98030.09
2019-06-27T13:25:17.349Z,98021.19
2019-06-27T13:28:23.383Z,98028.39
2019-06-27T13:31:29.499Z,98015.73
2019-06-27T13:34:40.259Z,98021.44
2019-06-27T13:37:44.139Z,98022.05
2019-06-27T13:40:50.163Z,98021.08
2019-06-27T13:43:56.207Z,98022.04
2019-06-27T13:47:02.591Z,98018.87
2019-06-27T13:50:09.284Z,98018.87
2019-06-27T13:53:16.452Z,98010.88
2019-06-27T13:56:22.497Z,98018.73
2019-06-27T13:59:28.909Z,98014.55
2019-06-27T14:02:35.049Z,98003.05
2019-06-27T14:05:41.758Z,98011.22
2019-06-27T14:08:49.154Z,98006.66
2019-06-27T14:11:55.707Z,98005.36
2019-06-27T14:15:01.906Z,97999.67
2019-06-27T14:18:08.244Z,97990.49
2019-06-27T14:21:14.419Z,97989.19
2019-06-27T14:24:20.668Z,97992.73
2019-06-27T14:27:26.901Z,97990.22
2019-06-27T14:30:33.026Z,97983.57
2019-06-27T14:33:39.290Z,97981.60
2019-06-27T14:36:45.392Z,97978.44
2019-06-27T14:39:51.438Z,97980.91
2019-06-27T14:42:57.478Z,97978.01
2019-06-27T14:46:03.536Z,97976.78
2019-06-27T14:49:09.597Z,97975.33
2019-06-27T14:52:16.313Z,97971.94
2019-06-27T14:55:22.997Z,97969.09
2019-06-27T14:58:29.061Z,97979.35
2019-06-27T15:01:35.147Z,97971.27
2019-06-27T15:04:41.222Z,97967.58
2019-06-27T15:07:47.755Z,97960.39
2019-06-27T15:10:54.176Z,97965.70
2019-06-27T15:14:00.253Z,97960.58
2019-06-27T15:17:06.434Z,97956.92
2019-06-27T15:20:12.857Z,97951.88
2019-06-27T15:23:20.571Z,97953.69
2019-06-27T15:26:26.615Z,97940.78
2019-06-27T15:29:32.732Z,97942.89
2019-06-27T15:32:38.946Z,97940.94
2019-06-27T15:35:52.513Z,97942.19
2019-06-27T15:38:54.213Z,97938.36
2019-06-27T15:42:01.564Z,97932.38
2019-06-27T15:45:09.348Z,97934.63
2019-06-27T15:48:15.399Z,97933.20
2019-06-27T15:51:21.491Z,97930.28
2019-06-27T15:54:27.928Z,97928.50
2019-06-27T15:57:36.493Z,97929.75
2019-06-27T16:00:42.829Z,97924.67
2019-06-27T16:03:50.845Z,97923.97
2019-06-27T16:06:56.924Z,97919.91
2019-06-27T16:10:04.312Z,97921.77
2019-06-27T16:13:10.417Z,97926.36
2019-06-27T16:16:16.941Z,97922.95
2019-06-27T16:19:23.220Z,97918.48
2019-06-27T16:22:29.317Z,97916.75
2019-06-27T16:25:35.571Z,97916.86
2019-06-27T16:28:41.592Z,97914.30
2019-06-27T16:31:47.714Z,97920.52
2019-06-27T16:34:53.896Z,97911.31
2019-06-27T16:38:00.154Z,97906.23
2019-06-27T16:41:06.939Z,97915.79
2019-06-27T16:44:12.979Z,97910.38
2019-06-27T16:47:19.138Z,97914.92
2019-06-27T16:50:25.203Z,97911.34
2019-06-27T16:53:31.769Z,97917.14
2019-06-27T16:56:38.194Z,97920.08
2019-06-27T16:59:44.387Z,97920.55
2019-06-27T17:02:50.428Z,97919.89
2019-06-27T17:05:57.427Z,97921.52
2019-06-27T17:09:05.279Z,97917.97
2019-06-27T17:12:11.341Z,97923.38
2019-06-27T17:15:18.118Z,97920.16
2019-06-27T17:18:24.150Z,97925.69
2019-06-27T17:21:30.289Z,97920.06
2019-06-27T17:24:37.869Z,97919.77
2019-06-27T17:27:43.940Z,97910.94
2019-06-27T17:30:49.967Z,97919.24
2019-06-27T17:33:57.755Z,97919.69
2019-06-27T17:37:03.810Z,97917.25
2019-06-27T17:40:10.767Z,97913.98
2019-06-27T17:43:16.804Z,97922.07
2019-06-27T17:46:22.909Z,97918.16
2019-06-27T17:49:29.184Z,97924.61
2019-06-27T17:52:36.003Z,97921.34
2019-06-27T17:55:42.029Z,97926.62
2019-06-27T17:58:48.576Z,97921.03
2019-06-27T18:01:54.766Z,97926.78
2019-06-27T18:05:00.826Z,97923.94
2019-06-27T18:08:06.997Z,97925.70
2019-06-27T18:11:13.313Z,97930.34
2019-06-27T18:14:19.363Z,97930.38
2019-06-27T18:17:33.427Z,97924.22
2019-06-27T18:20:33.357Z,97927.39
2019-06-27T18:23:39.436Z,97932.04
2019-06-27T18:26:45.871Z,97924.68
2019-06-27T18:29:51.990Z,97930.47
2019-06-27T18:32:58.020Z,97921.33
2019-06-27T18:36:04.222Z,97918.78
2019-06-27T18:39:10.457Z,97920.47
2019-06-27T18:42:16.568Z,97920.12
2019-06-27T18:45:24.229Z,97925.27
2019-06-27T18:48:31.121Z,97921.42
2019-06-27T18:51:37.161Z,97932.38
2019-06-27T18:54:43.243Z,97934.70
2019-06-27T18:57:49.804Z,97929.52
2019-06-27T19:00:56.729Z,97929.80
2019-06-27T19:04:03.040Z,97936.24
2019-06-27T19:07:09.100Z,97934.05
2019-06-27T19:10:17.334Z,97943.61
2019-06-27T19:13:26.319Z,97946.42
2019-06-27T19:16:32.661Z,97949.07
2019-06-27T19:19:41.095Z,97957.80
2019-06-27T19:23:05.976Z,97953.02
2019-06-27T19:26:12.059Z,97949.90
2019-06-27T19:29:18.374Z,97958.52
2019-06-27T19:32:25.090Z,97957.77
2019-06-27T19:35:31.408Z,97960.39
2019-06-27T19:38:37.857Z,97963.17
2019-06-27T19:41:44.340Z,97968.76
2019-06-27T19:44:50.681Z,97968.55
2019-06-27T19:47:57.272Z,97976.45
2019-06-27T19:51:04.347Z,97982.67
2019-06-27T19:54:10.693Z,97988.50
2019-06-27T19:57:17.194Z,97982.94
2019-06-27T20:00:23.941Z,97991.46
2019-06-27T20:03:30.696Z,98000.06
2019-06-27T20:06:37.024Z,97998.02
2019-06-27T20:09:43.612Z,97998.13
2019-06-27T20:12:51.280Z,98000.50
2019-06-27T20:15:58.275Z,98000.91
2019-06-27T20:19:05.923Z,98009.77
2019-06-27T20:22:12.961Z,98006.10
2019-06-27T20:25:19.619Z,98010.61
2019-06-27T20:28:26.046Z,98000.81
2019-06-27T20:31:32.385Z,98008.44
2019-06-27T20:34:39.557Z,98007.25
2019-06-27T20:37:46.009Z,98013.89
2019-06-27T20:40:52.744Z,98014.49
2019-06-27T20:43:59.068Z,98016.09
2019-06-27T20:47:05.755Z,98016.63
2019-06-27T20:50:13.233Z,98014.58
2019-06-27T20:53:19.588Z,98027.47
2019-06-27T20:56:26.018Z,98028.50
2019-06-27T20:59:32.572Z,98031.39
2019-06-27T21:02:39.377Z,98025.03
2019-06-27T21:05:46.057Z,98024.67
2019-06-27T21:08:52.641Z,98021.47
2019-06-27T21:11:59.022Z,98033.63
2019-06-27T21:15:05.740Z,98036.78
2019-06-27T21:18:12.472Z,98044.48
2019-06-27T21:21:19.505Z,98041.11
2019-06-27T21:24:26.467Z,98037.68
2019-06-27T21:27:32.890Z,98047.27
2019-06-27T21:30:39.361Z,98048.41
2019-06-27T21:33:46.062Z,98047.90
2019-06-27T21:36:53.680Z,98045.58
2019-06-27T21:39:59.992Z,98052.58
2019-06-27T21:43:06.604Z,98052.58
2019-06-27T21:46:13.226Z,98052.61
2019-06-27T21:49:19.557Z,98055.27
2019-06-27T21:52:26.326Z,98063.17
2019-06-27T21:55:32.709Z,98069.75
2019-06-27T21:58:39.377Z,98072.78
2019-06-27T22:01:45.872Z,98060.58
2019-06-27T22:04:52.204Z,98060.08
2019-06-27T22:07:58.898Z,98067.59
2019-06-27T22:11:05.363Z,98066.42
2019-06-27T22:14:11.758Z,98071.70
2019-06-27T22:17:18.916Z,98068.62
2019-06-27T22:20:25.345Z,98072.30
2019-06-27T22:23:31.929Z,98078.80
2019-06-27T22:26:39.373Z,98075.06
2019-06-27T22:29:45.692Z,98075.11
2019-06-27T22:32:52.097Z,98067.08
2019-06-27T22:35:58.515Z,98064.37
2019-06-27T22:39:36.254Z,98064.02
2019-06-27T22:42:48.966Z,98068.78
2019-06-27T22:46:13.436Z,98072.70
2019-06-27T22:49:18.861Z,98075.68
2019-06-27T22:52:53.258Z,98071.52
2019-06-27T22:55:59.752Z,98077.49
2019-06-27T22:59:06.215Z,98074.56
2019-06-27T23:02:12.561Z,98070.98
2019-06-27T23:05:19.374Z,98077.35
2019-06-27T23:08:27.022Z,98073.23
2019-06-27T23:11:33.443Z,98078.58
2019-06-27T23:14:39.916Z,98076.40
2019-06-27T23:17:46.361Z,98079.85
2019-06-27T23:20:52.939Z,98086.00
2019-06-27T23:23:59.281Z,98088.98
2019-06-27T23:27:05.962Z,98079.39
2019-06-27T23:30:13.226Z,98080.48
2019-06-27T23:33:19.553Z,98073.52
2019-06-27T23:36:25.905Z,98071.56
2019-06-27T23:39:32.219Z,98078.20
2019-06-27T23:42:38.723Z,98075.17
2019-06-27T23:45:45.153Z,98078.14
2019-06-27T23:48:54.544Z,98076.80
2019-06-27T23:52:00.966Z,98073.64
2019-06-27T23:55:07.875Z,98073.02
2019-06-27T23:58:14.217Z,98073.05
